createdAt,value
2018-07-19T00:01:17.558Z,63.88
2018-07-19T00:03:45.996Z,65.29
2018-07-19T00:06:14.471Z,65.50
2018-07-19T00:08:42.860Z,64.74
2018-07-19T00:11:11.342Z,65.12
2018-07-19T00:13:39.782Z,65.29
2018-07-19T00:16:08.290Z,65.41
2018-07-19T00:18:36.723Z,65.30
2018-07-19T00:21:05.180Z,65.97
2018-07-19T00:23:33.557Z,65.59
2018-07-19T00:26:02.018Z,66.18
2018-07-19T00:28:30.392Z,66.19
2018-07-19T00:30:58.799Z,65.95
2018-07-19T00:33:27.196Z,66.30
2018-07-19T00:35:55.612Z,66.55
2018-07-19T00:38:24.055Z,66.03
2018-07-19T00:40:52.432Z,67.00
2018-07-19T00:43:20.860Z,66.45
2018-07-19T00:45:49.291Z,66.38
2018-07-19T00:48:17.713Z,66.31
2018-07-19T00:50:46.148Z,65.14
2018-07-19T00:53:14.692Z,66.10
2018-07-19T00:55:43.168Z,65.24
2018-07-19T00:58:11.563Z,65.49
2018-07-19T01:00:40.303Z,66.03
2018-07-19T01:03:08.713Z,65.36
2018-07-19T01:05:37.162Z,66.17
2018-07-19T01:08:06.510Z,64.95
2018-07-19T01:10:35.708Z,66.06
2018-07-19T01:13:04.163Z,66.31
2018-07-19T01:15:32.607Z,67.01
2018-07-19T01:18:01.038Z,66.87
2018-07-19T01:20:29.493Z,67.78
2018-07-19T01:22:57.954Z,67.71
2018-07-19T01:25:26.367Z,67.57
2018-07-19T01:27:54.880Z,68.15
2018-07-19T01:30:23.287Z,67.65
2018-07-19T01:32:51.712Z,67.85
2018-07-19T01:35:20.082Z,67.49
2018-07-19T01:37:48.564Z,67.82
2018-07-19T01:40:17.016Z,66.22
2018-07-19T01:42:46.059Z,67.35
2018-07-19T01:45:14.733Z,67.16
2018-07-19T01:47:43.175Z,67.35
2018-07-19T01:50:12.232Z,67.59
2018-07-19T01:52:40.615Z,67.24
2018-07-19T01:55:09.376Z,67.65
2018-07-19T01:57:37.964Z,68.42
2018-07-19T02:00:06.839Z,68.09
2018-07-19T02:02:35.252Z,68.85
2018-07-19T02:05:03.764Z,68.97
2018-07-19T02:07:32.168Z,68.99
2018-07-19T02:10:00.608Z,68.90
2018-07-19T02:12:28.987Z,68.81
2018-07-19T02:14:57.441Z,69.35
2018-07-19T02:17:25.836Z,69.45
2018-07-19T02:19:54.257Z,68.94
2018-07-19T02:22:22.669Z,68.78
2018-07-19T02:24:51.065Z,69.19
2018-07-19T02:27:19.524Z,69.20
2018-07-19T02:29:47.988Z,69.06
2018-07-19T02:32:16.375Z,69.70
2018-07-19T02:34:45.154Z,69.44
2018-07-19T02:37:13.788Z,68.96
2018-07-19T02:39:42.161Z,69.62
2018-07-19T02:42:10.633Z,70.34
2018-07-19T02:44:39.048Z,70.15
2018-07-19T02:47:07.444Z,70.58
2018-07-19T02:49:35.882Z,70.08
2018-07-19T02:52:04.413Z,70.40
2018-07-19T02:54:32.779Z,69.66
2018-07-19T02:57:01.151Z,70.41
2018-07-19T02:59:29.552Z,70.45
2018-07-19T03:01:57.985Z,70.44
2018-07-19T03:04:26.440Z,70.06
2018-07-19T03:06:54.849Z,71.19
2018-07-19T03:09:23.266Z,70.24
2018-07-19T03:11:51.669Z,71.55
2018-07-19T03:14:20.099Z,71.62
2018-07-19T03:16:48.551Z,70.79
2018-07-19T03:19:17.021Z,70.79
2018-07-19T03:21:45.409Z,71.13
2018-07-19T03:24:13.812Z,71.22
2018-07-19T03:26:42.207Z,70.51
2018-07-19T03:29:10.761Z,70.61
2018-07-19T03:31:39.157Z,71.83
2018-07-19T03:34:07.541Z,71.78
2018-07-19T03:36:35.982Z,72.11
2018-07-19T03:39:06.568Z,71.22
2018-07-19T03:41:34.947Z,71.66
2018-07-19T03:44:03.595Z,72.32
2018-07-19T03:46:32.029Z,71.41
2018-07-19T03:49:00.532Z,71.99
2018-07-19T03:51:28.972Z,72.03
2018-07-19T03:53:57.560Z,71.88
2018-07-19T03:56:25.993Z,71.57
2018-07-19T03:58:54.371Z,72.12
2018-07-19T04:01:22.832Z,72.53
2018-07-19T04:03:51.240Z,72.72
2018-07-19T04:06:19.637Z,72.23
2018-07-19T04:08:48.088Z,72.26
2018-07-19T04:11:16.474Z,71.96
2018-07-19T04:13:44.892Z,72.12
2018-07-19T04:16:13.320Z,72.86
2018-07-19T04:18:41.711Z,72.76
2018-07-19T04:21:10.128Z,71.54
2018-07-19T04:23:38.517Z,72.40
2018-07-19T04:26:06.953Z,71.75
2018-07-19T04:28:35.393Z,71.85
2018-07-19T04:31:03.856Z,72.84
2018-07-19T04:33:32.273Z,73.10
2018-07-19T04:36:00.664Z,72.38
2018-07-19T04:38:29.098Z,72.54
2018-07-19T04:40:57.529Z,72.37
2018-07-19T04:43:25.973Z,72.89
2018-07-19T04:45:54.410Z,73.31
2018-07-19T04:48:22.894Z,73.07
2018-07-19T04:50:51.228Z,72.77
2018-07-19T04:53:19.654Z,72.71
2018-07-19T04:55:48.163Z,72.74
2018-07-19T04:58:16.580Z,72.81
2018-07-19T05:00:44.985Z,72.72
2018-07-19T05:03:13.422Z,72.71
2018-07-19T05:05:41.803Z,72.64
2018-07-19T05:08:10.251Z,72.31
2018-07-19T05:10:38.740Z,72.50
2018-07-19T05:13:07.117Z,73.15
2018-07-19T05:15:35.562Z,72.72
2018-07-19T05:18:03.990Z,73.40
2018-07-19T05:20:32.470Z,73.13
2018-07-19T05:23:00.874Z,73.43
2018-07-19T05:25:29.359Z,73.14
2018-07-19T05:27:57.817Z,72.72
2018-07-19T05:30:26.214Z,72.43
2018-07-19T05:32:54.611Z,73.10
2018-07-19T05:35:23.168Z,72.58
2018-07-19T05:37:51.642Z,72.31
2018-07-19T05:40:20.107Z,72.29
2018-07-19T05:42:48.508Z,72.15
2018-07-19T05:45:16.994Z,72.31
2018-07-19T05:47:45.447Z,72.50
2018-07-19T05:50:13.852Z,72.23
2018-07-19T05:52:42.252Z,70.88
2018-07-19T05:55:10.708Z,70.69
2018-07-19T05:57:39.182Z,70.92
2018-07-19T06:00:07.756Z,69.52
2018-07-19T06:02:36.196Z,69.97
2018-07-19T06:05:04.999Z,69.79
2018-07-19T06:07:33.415Z,69.41
2018-07-19T06:10:01.888Z,70.02
2018-07-19T06:12:30.378Z,69.14
2018-07-19T06:14:58.815Z,68.82
2018-07-19T06:17:27.335Z,67.83
2018-07-19T06:19:55.715Z,66.63
2018-07-19T06:22:24.238Z,67.59
2018-07-19T06:24:53.044Z,67.16
2018-07-19T06:27:22.416Z,67.11
2018-07-19T06:29:51.482Z,65.82
2018-07-19T06:32:19.892Z,64.34
2018-07-19T06:34:48.337Z,64.25
2018-07-19T06:37:16.734Z,63.62
2018-07-19T06:39:45.219Z,64.39
2018-07-19T06:42:13.644Z,63.48
2018-07-19T06:44:42.046Z,63.28
2018-07-19T06:47:10.537Z,63.62
2018-07-19T06:49:39.020Z,62.87
2018-07-19T06:52:07.789Z,62.83
2018-07-19T06:54:36.212Z,61.59
2018-07-19T06:57:04.879Z,61.31
2018-07-19T06:59:33.292Z,60.00
2018-07-19T07:02:01.762Z,59.68
2018-07-19T07:04:30.202Z,60.19
2018-07-19T07:06:58.697Z,60.03
2018-07-19T07:09:27.221Z,60.15
2018-07-19T07:11:55.675Z,58.46
2018-07-19T07:14:24.081Z,58.76
2018-07-19T07:16:52.634Z,60.06
2018-07-19T07:19:21.032Z,58.99
2018-07-19T07:21:49.495Z,59.26
2018-07-19T07:24:18.081Z,59.48
2018-07-19T07:26:46.501Z,59.33
2018-07-19T07:29:14.954Z,59.81
2018-07-19T07:31:43.516Z,58.82
2018-07-19T07:34:11.970Z,59.53
2018-07-19T07:36:40.348Z,56.83
2018-07-19T07:39:10.072Z,58.29
2018-07-19T07:41:38.523Z,58.51
2018-07-19T07:44:07.003Z,58.68
2018-07-19T07:46:35.380Z,58.60
2018-07-19T07:49:03.915Z,58.61
2018-07-19T07:51:32.635Z,59.58
2018-07-19T07:54:01.019Z,58.10
2018-07-19T07:56:29.504Z,57.83
2018-07-19T07:58:57.908Z,58.71
2018-07-19T08:01:26.379Z,57.72
2018-07-19T08:03:54.804Z,56.31
2018-07-19T08:06:23.258Z,57.10
2018-07-19T08:08:51.684Z,56.84
2018-07-19T08:11:20.150Z,56.83
2018-07-19T08:13:48.622Z,57.73
2018-07-19T08:16:17.325Z,58.71
2018-07-19T08:18:45.780Z,57.83
2018-07-19T08:21:14.208Z,57.06
2018-07-19T08:23:42.731Z,56.75
2018-07-19T08:26:11.200Z,56.60
2018-07-19T08:28:39.616Z,56.36
2018-07-19T08:31:08.084Z,58.39
2018-07-19T08:33:36.556Z,58.02
2018-07-19T08:36:05.220Z,57.28
2018-07-19T08:38:33.668Z,57.40
2018-07-19T08:41:02.147Z,58.82
2018-07-19T08:43:30.604Z,57.92
2018-07-19T08:45:59.084Z,57.62
2018-07-19T08:48:27.590Z,57.53
2018-07-19T08:50:56.098Z,56.17
2018-07-19T08:53:24.541Z,54.74
2018-07-19T08:55:52.961Z,54.73
2018-07-19T08:58:21.415Z,55.11
2018-07-19T09:00:49.915Z,55.41
2018-07-19T09:03:19.232Z,55.61
2018-07-19T09:05:47.720Z,56.33
2018-07-19T09:08:16.192Z,54.62
2018-07-19T09:10:44.626Z,55.19
2018-07-19T09:13:13.101Z,54.02
2018-07-19T09:15:41.532Z,55.08
2018-07-19T09:18:09.921Z,55.17
2018-07-19T09:20:38.348Z,54.86
2018-07-19T09:23:06.830Z,54.55
2018-07-19T09:25:35.268Z,54.35
2018-07-19T09:28:03.721Z,53.69
2018-07-19T09:30:32.320Z,53.48
2018-07-19T09:33:00.733Z,53.58
2018-07-19T09:35:29.152Z,54.51
2018-07-19T09:37:57.691Z,53.34
2018-07-19T09:40:26.052Z,52.96
2018-07-19T09:42:54.532Z,53.29
2018-07-19T09:45:22.962Z,51.50
2018-07-19T09:47:51.341Z,51.07
2018-07-19T09:50:19.742Z,52.24
2018-07-19T09:52:48.170Z,52.72
2018-07-19T09:55:16.660Z,51.81
2018-07-19T09:57:45.036Z,49.59
2018-07-19T10:00:13.501Z,49.17
2018-07-19T10:02:41.877Z,49.40
2018-07-19T10:05:10.328Z,48.87
2018-07-19T10:07:38.751Z,47.05
2018-07-19T10:10:07.274Z,47.20
2018-07-19T10:12:35.657Z,46.80
2018-07-19T10:15:04.320Z,46.69
2018-07-19T10:17:32.729Z,48.74
2018-07-19T10:20:01.152Z,48.12
2018-07-19T10:22:29.541Z,48.11
2018-07-19T10:24:57.905Z,46.90
2018-07-19T10:27:26.339Z,46.04
2018-07-19T10:29:54.736Z,47.69
2018-07-19T10:32:23.406Z,47.64
2018-07-19T10:34:51.614Z,46.96
2018-07-19T10:37:20.049Z,46.45
2018-07-19T10:39:48.459Z,48.81
2018-07-19T10:42:17.389Z,48.69
2018-07-19T10:44:45.787Z,47.58
2018-07-19T10:47:14.197Z,47.67
2018-07-19T10:49:42.552Z,45.65
2018-07-19T10:52:10.970Z,44.10
2018-07-19T10:54:39.364Z,43.47
2018-07-19T10:57:07.880Z,46.09
2018-07-19T10:59:36.357Z,44.65
2018-07-19T11:02:04.728Z,45.28
2018-07-19T11:04:33.263Z,46.26
2018-07-19T11:07:01.711Z,44.30
2018-07-19T11:09:30.192Z,45.01
2018-07-19T11:11:58.589Z,45.47
2018-07-19T11:14:27.052Z,45.87
2018-07-19T11:16:55.475Z,45.31
2018-07-19T11:19:23.906Z,45.08
2018-07-19T11:21:52.386Z,43.52
2018-07-19T11:24:20.813Z,41.30
2018-07-19T11:26:49.235Z,40.96
2018-07-19T11:29:17.649Z,41.52
2018-07-19T11:31:46.059Z,39.61
2018-07-19T11:34:14.496Z,40.45
2018-07-19T11:36:42.903Z,40.06
2018-07-19T11:39:11.292Z,41.72
2018-07-19T11:41:40.253Z,43.50
2018-07-19T11:44:08.654Z,43.17
2018-07-19T11:46:37.171Z,41.76
2018-07-19T11:49:05.619Z,42.32
2018-07-19T11:51:34.115Z,43.25
2018-07-19T11:54:02.516Z,42.86
2018-07-19T11:56:30.962Z,45.40
2018-07-19T11:58:59.408Z,45.76
2018-07-19T12:01:27.819Z,42.47
2018-07-19T12:03:56.216Z,45.93
2018-07-19T12:06:24.693Z,45.94
2018-07-19T12:08:53.068Z,45.54
2018-07-19T12:11:21.498Z,45.98
2018-07-19T12:13:49.905Z,44.17
2018-07-19T12:16:18.284Z,41.37
2018-07-19T12:18:46.680Z,40.24
2018-07-19T12:21:15.128Z,37.87
2018-07-19T12:23:43.527Z,40.89
2018-07-19T12:26:11.932Z,34.48
2018-07-19T12:28:40.408Z,34.12
2018-07-19T12:31:08.840Z,32.61
2018-07-19T12:33:37.783Z,33.48
2018-07-19T12:36:06.364Z,32.55
2018-07-19T12:38:34.739Z,30.94
2018-07-19T12:41:03.272Z,34.37
2018-07-19T12:43:31.744Z,35.67
2018-07-19T12:46:00.164Z,33.19
2018-07-19T12:48:28.576Z,36.11
2018-07-19T12:50:57.043Z,35.15
2018-07-19T12:53:25.487Z,36.16
2018-07-19T12:55:53.957Z,34.63
2018-07-19T12:58:22.379Z,36.29
2018-07-19T13:00:50.818Z,38.06
2018-07-19T13:06:01.858Z,39.33
2018-07-19T13:08:30.260Z,36.69
2018-07-19T13:10:58.684Z,36.40
2018-07-19T13:13:27.853Z,34.71
2018-07-19T13:15:56.384Z,35.10
2018-07-19T13:18:24.788Z,32.92
2018-07-19T13:20:53.215Z,32.19
2018-07-19T13:23:22.013Z,35.37
2018-07-19T13:25:50.392Z,33.42
2018-07-19T13:28:18.754Z,34.08
2018-07-19T13:30:47.132Z,31.98
2018-07-19T13:33:15.501Z,34.21
2018-07-19T13:35:43.902Z,34.49
2018-07-19T13:38:12.284Z,33.88
2018-07-19T13:40:40.751Z,33.55
2018-07-19T13:43:09.216Z,33.89
2018-07-19T13:45:37.639Z,32.57
2018-07-19T13:48:06.148Z,34.34
2018-07-19T13:50:34.540Z,35.10
2018-07-19T13:54:12.073Z,33.49
2018-07-19T13:56:41.445Z,33.93
2018-07-19T13:59:09.942Z,35.81
2018-07-19T14:01:38.476Z,36.90
2018-07-19T14:04:07.244Z,36.17
2018-07-19T14:06:35.734Z,34.69
2018-07-19T14:09:06.461Z,37.85
2018-07-19T14:11:34.872Z,39.24
2018-07-19T14:14:03.224Z,38.28
2018-07-19T14:16:31.632Z,38.73
2018-07-19T14:19:00.052Z,40.08
2018-07-19T14:21:28.450Z,38.98
2018-07-19T14:23:56.958Z,38.09
2018-07-19T14:26:25.630Z,37.62
2018-07-19T14:28:54.351Z,36.96
2018-07-19T14:31:22.750Z,32.91
2018-07-19T14:33:51.177Z,35.40
2018-07-19T14:36:19.581Z,35.02
2018-07-19T14:38:48.003Z,35.89
2018-07-19T14:41:16.449Z,35.74
2018-07-19T14:43:44.841Z,35.52
2018-07-19T14:46:13.275Z,35.56
2018-07-19T14:48:41.670Z,34.15
2018-07-19T14:51:10.613Z,36.29
2018-07-19T14:53:39.203Z,37.63
2018-07-19T14:56:07.715Z,37.93
2018-07-19T14:58:36.128Z,37.77
2018-07-19T15:01:04.601Z,35.10
2018-07-19T15:03:33.013Z,34.40
2018-07-19T15:06:01.442Z,36.06
2018-07-19T15:08:29.888Z,36.28
2018-07-19T15:10:58.336Z,35.23
2018-07-19T15:13:26.740Z,34.94
2018-07-19T15:15:55.213Z,32.42
2018-07-19T15:18:23.705Z,35.84
2018-07-19T15:20:52.176Z,34.67
2018-07-19T15:23:20.677Z,36.69
2018-07-19T15:25:49.033Z,36.86
2018-07-19T15:28:17.411Z,35.79
2018-07-19T15:30:45.956Z,33.81
2018-07-19T15:33:14.404Z,31.22
2018-07-19T15:35:42.852Z,32.47
2018-07-19T15:38:11.275Z,32.33
2018-07-19T15:40:39.701Z,34.66
2018-07-19T15:43:08.105Z,32.97
2018-07-19T15:45:36.557Z,30.86
2018-07-19T15:48:04.994Z,31.97
2018-07-19T15:50:33.448Z,34.07
2018-07-19T15:53:01.844Z,33.44
2018-07-19T15:55:30.258Z,31.59
2018-07-19T15:57:58.652Z,33.64
2018-07-19T16:00:27.212Z,31.98
2018-07-19T16:02:55.763Z,35.01
2018-07-19T16:05:24.187Z,34.41
2018-07-19T16:07:52.651Z,31.68
2018-07-19T16:10:21.093Z,32.94
2018-07-19T16:12:49.476Z,32.41
2018-07-19T16:15:17.884Z,34.84
2018-07-19T16:17:46.346Z,32.78
2018-07-19T16:20:14.761Z,32.37
2018-07-19T16:22:43.150Z,33.68
2018-07-19T16:25:11.579Z,33.41
2018-07-19T16:27:39.997Z,32.64
2018-07-19T16:30:08.401Z,34.69
2018-07-19T16:32:36.830Z,35.51
2018-07-19T16:35:05.382Z,33.10
2018-07-19T16:37:33.813Z,33.17
2018-07-19T16:40:02.233Z,34.69
2018-07-19T16:42:30.651Z,33.72
2018-07-19T16:44:59.093Z,32.97
2018-07-19T16:47:27.648Z,34.78
2018-07-19T16:49:56.072Z,37.33
2018-07-19T16:52:24.539Z,37.56
2018-07-19T16:54:53.043Z,38.96
2018-07-19T16:57:21.579Z,38.09
2018-07-19T16:59:49.983Z,37.45
2018-07-19T17:02:18.448Z,37.98
2018-07-19T17:04:46.969Z,37.89
2018-07-19T17:07:15.832Z,37.30
2018-07-19T17:09:44.367Z,38.08
2018-07-19T17:12:12.772Z,39.69
2018-07-19T17:14:41.225Z,39.65
2018-07-19T17:17:09.706Z,39.93
2018-07-19T17:19:38.149Z,40.78
2018-07-19T17:22:06.795Z,38.68
2018-07-19T17:24:35.283Z,38.60
2018-07-19T17:27:03.744Z,36.51
2018-07-19T17:29:32.114Z,38.07
2018-07-19T17:32:00.567Z,35.41
2018-07-19T17:34:28.969Z,36.10
2018-07-19T17:36:57.368Z,36.36
2018-07-19T17:39:25.800Z,36.59
2018-07-19T17:41:54.232Z,38.32
2018-07-19T17:44:22.798Z,37.57
2018-07-19T17:46:51.208Z,37.38
2018-07-19T17:49:19.664Z,38.94
2018-07-19T17:51:48.189Z,37.56
2018-07-19T17:54:16.608Z,38.42
2018-07-19T17:56:44.996Z,38.73
2018-07-19T17:59:13.398Z,38.86
2018-07-19T18:01:41.811Z,38.09
2018-07-19T18:04:10.251Z,38.44
2018-07-19T18:06:38.718Z,38.99
2018-07-19T18:09:09.211Z,39.79
2018-07-19T18:11:38.090Z,36.79
2018-07-19T18:14:06.577Z,39.71
2018-07-19T18:16:35.356Z,38.30
2018-07-19T18:19:03.764Z,39.11
2018-07-19T18:21:32.527Z,37.35
2018-07-19T18:24:00.920Z,39.38
2018-07-19T18:26:29.367Z,39.69
2018-07-19T18:28:57.952Z,39.32
2018-07-19T18:31:26.814Z,40.64
2018-07-19T18:33:55.243Z,40.20
2018-07-19T18:36:23.854Z,39.08
2018-07-19T18:38:52.600Z,39.61
2018-07-19T18:41:21.060Z,41.27
2018-07-19T18:43:49.495Z,40.27
2018-07-19T18:46:18.036Z,41.52
2018-07-19T18:48:46.520Z,39.65
2018-07-19T18:51:15.415Z,40.35
2018-07-19T18:53:43.873Z,41.66
2018-07-19T18:56:12.337Z,43.82
2018-07-19T18:58:40.798Z,43.99
2018-07-19T19:01:09.388Z,45.26
2018-07-19T19:03:37.769Z,45.61
2018-07-19T19:06:06.409Z,45.88
2018-07-19T19:08:34.828Z,45.64
2018-07-19T19:11:03.371Z,46.12
2018-07-19T19:13:31.880Z,46.32
2018-07-19T19:16:00.276Z,46.70
2018-07-19T19:18:28.799Z,47.14
2018-07-19T19:20:57.255Z,46.68
2018-07-19T19:23:25.711Z,46.99
2018-07-19T19:25:54.266Z,47.29
2018-07-19T19:28:22.731Z,48.66
2018-07-19T19:30:51.168Z,49.24
2018-07-19T19:33:19.576Z,50.75
2018-07-19T19:35:48.002Z,52.04
2018-07-19T19:38:16.416Z,54.23
2018-07-19T19:40:44.952Z,54.83
2018-07-19T19:43:13.344Z,54.45
2018-07-19T19:45:41.792Z,53.98
2018-07-19T19:48:10.216Z,54.60
2018-07-19T19:50:38.728Z,53.61
2018-07-19T19:53:07.203Z,54.08
2018-07-19T19:55:35.637Z,54.23
2018-07-19T19:58:04.432Z,54.03
2018-07-19T20:00:32.861Z,54.20
2018-07-19T20:03:01.380Z,55.69
2018-07-19T20:05:29.832Z,56.27
2018-07-19T20:07:58.211Z,55.39
2018-07-19T20:10:26.672Z,54.53
2018-07-19T20:12:55.167Z,55.16
2018-07-19T20:15:23.652Z,53.33
2018-07-19T20:17:52.205Z,55.04
2018-07-19T20:20:20.925Z,54.95
2018-07-19T20:22:49.376Z,55.41
2018-07-19T20:25:17.852Z,54.35
2018-07-19T20:27:49.713Z,53.51
2018-07-19T20:30:18.238Z,54.66
2018-07-19T20:32:46.705Z,54.58
2018-07-19T20:35:15.108Z,54.61
2018-07-19T20:37:46.121Z,55.55
2018-07-19T20:40:16.844Z,56.38
2018-07-19T20:42:46.964Z,56.75
2018-07-19T20:45:15.797Z,55.56
2018-07-19T20:47:44.737Z,56.24
2018-07-19T20:50:13.328Z,55.79
2018-07-19T20:52:41.773Z,55.66
2018-07-19T20:55:10.312Z,55.73
2018-07-19T20:57:39.044Z,54.64
2018-07-19T21:00:07.709Z,55.22
2018-07-19T21:02:36.181Z,55.16
2018-07-19T21:05:04.684Z,55.62
2018-07-19T21:07:33.162Z,55.21
2018-07-19T21:10:01.701Z,55.22
2018-07-19T21:12:30.139Z,54.56
2018-07-19T21:14:58.704Z,53.15
2018-07-19T21:17:27.326Z,54.38
2018-07-19T21:19:56.495Z,55.09
2018-07-19T21:22:24.876Z,55.54
2018-07-19T21:24:53.379Z,55.31
2018-07-19T21:27:21.915Z,53.65
2018-07-19T21:29:50.486Z,52.78
2018-07-19T21:32:18.897Z,52.50
2018-07-19T21:34:47.479Z,52.27
2018-07-19T21:37:16.010Z,52.28
2018-07-19T21:39:44.714Z,54.42
2018-07-19T21:42:13.534Z,53.44
2018-07-19T21:44:42.189Z,53.61
2018-07-19T21:47:10.700Z,51.80
2018-07-19T21:49:39.281Z,51.90
2018-07-19T21:52:07.851Z,52.97
2018-07-19T21:54:36.371Z,53.56
2018-07-19T21:57:04.865Z,53.08
2018-07-19T21:59:33.314Z,53.15
2018-07-19T22:02:01.807Z,53.90
2018-07-19T22:04:30.216Z,53.38
2018-07-19T22:06:58.729Z,53.06
2018-07-19T22:09:27.235Z,52.00
2018-07-19T22:11:55.663Z,52.02
2018-07-19T22:14:24.166Z,53.63
2018-07-19T22:16:52.586Z,51.45
2018-07-19T22:23:36.242Z,52.78
2018-07-19T22:26:04.796Z,53.89
2018-07-19T22:28:33.156Z,52.23
2018-07-19T22:31:01.567Z,51.87
2018-07-19T22:33:29.979Z,54.22
2018-07-19T22:35:58.416Z,54.21
2018-07-19T22:38:26.816Z,54.48
2018-07-19T22:40:55.282Z,53.88
2018-07-19T22:43:23.699Z,53.72
2018-07-19T22:45:52.120Z,53.87
2018-07-19T22:48:20.564Z,53.81
2018-07-19T22:50:49.010Z,55.25
2018-07-19T22:53:17.441Z,54.74
2018-07-19T22:55:45.843Z,54.99
2018-07-19T22:58:14.344Z,54.77
2018-07-19T23:00:42.788Z,55.80
2018-07-19T23:03:11.188Z,55.29
2018-07-19T23:05:39.560Z,53.04
2018-07-19T23:08:07.951Z,54.97
2018-07-19T23:10:36.392Z,54.23
2018-07-19T23:13:04.826Z,55.18
2018-07-19T23:15:33.302Z,55.05
2018-07-19T23:18:01.692Z,53.90
2018-07-19T23:20:30.084Z,54.77
2018-07-19T23:22:59.316Z,54.67
2018-07-19T23:25:27.759Z,54.85
2018-07-19T23:27:56.987Z,55.28
2018-07-19T23:30:33.876Z,55.28
2018-07-19T23:33:02.361Z,54.81
2018-07-19T23:36:06.313Z,54.35
2018-07-19T23:39:38.516Z,55.14
2018-07-19T23:42:10.767Z,55.12
2018-07-19T23:44:44.187Z,55.21
2018-07-19T23:47:22.334Z,55.73
2018-07-19T23:49:50.760Z,55.55
2018-07-19T23:52:19.200Z,56.18
2018-07-19T23:54:47.751Z,56.40
2018-07-19T23:57:16.173Z,56.28
2018-07-19T23:59:44.565Z,56.51
